Afghanistan

Resources for Afghanistan vACC (Inactive)

Active Sector File
No Active sector file available at this moment, please check back later!

VATSIM Metar for Afghanistan
OAMS 130650Z 28004KT 9999 FEW080 BKN250 34/08 Q1003 BLU+BLU+
OAKB 130650Z 02006KT 9999 SCT050 26/12 Q1013 RMK A2991 BLU BLU
OAJL 130656Z VRB03KT 9999 FEW180 35/14 A2963 RMK AO2 SLP981 WND DATA ESTMD T03520142 $
OAHR 130655Z 08006G16KT CAVOK 35/06 Q1006 RMK FEW120 A2972 BLU
OAKN 130656Z 18007G17KT 9999 FEW240 35/00 A2964 RMK AO2A SLP972 WND DATA ESTMD T03541003
OAIX 130658Z 35006KT 9999 FEW080 SCT120 SCT230 28/12 A2980 RMK AO2A SLP999 T02770120 $